Time;durP1;ratioP1;P1;durP2;ratioP2;P2;SDS_P1;SDS_P2;PMS_P1;PMS_P2;Temp;Humidity;BMP_temperature;BMP_pressure;BME280_temperature;BME280_humidity;BME280_pressure;Samples;Min_cycle;Max_cycle;Signal;HPM_P1;HPM_P2
2020/12/07 15:05:25;;;;;;;63.20;25.73;;;;;;;;;;6216557;22;761467;-71
2020/12/07 15:16:09;;;;;;;71.40;25.60;;;9.70;61.70;;;;;;6281069;22;20003;-70
2020/12/07 15:18:35;;;;;;;65.75;23.08;;;;;;;;;;6281175;22;20106;-73
2020/12/07 15:21:04;;;;;;;72.00;27.23;;;9.30;62.70;;;;;;6278568;22;20021;-71
2020/12/07 15:23:31;;;;;;;66.10;25.35;;;;;;;;;;6280717;22;20007;-72
2020/12/07 15:25:57;;;;;;;56.47;23.67;;;;;;;;;;6280735;22;20460;-74
2020/12/07 15:28:23;;;;;;;75.53;26.40;;;;;;;;;;6281515;22;20043;-72
2020/12/07 15:30:50;;;;;;;74.28;28.58;;;;;;;;;;6282677;22;20058;-71
2020/12/07 15:33:17;;;;;;;68.43;25.50;;;;;;;;;;6253620;22;20085;-73
2020/12/07 15:35:43;;;;;;;73.88;25.00;;;;;;;;;;6280632;22;20012;-71
2020/12/07 15:38:09;;;;;;;59.20;22.75;;;;;;;;;;6281482;22;20052;-73
2020/12/07 15:40:36;;;;;;;75.32;27.60;;;;;;;;;;6227936;22;20022;-72
2020/12/07 15:43:02;;;;;;;74.22;28.35;;;;;;;;;;6281245;22;20034;-74
2020/12/07 15:45:31;;;;;;;75.55;28.27;;;;;;;;;;6281592;22;20397;-74
2020/12/07 15:47:57;;;;;;;70.90;27.58;;;;;;;;;;6281735;22;20021;-74
2020/12/07 15:50:23;;;;;;;71.40;26.27;;;;;;;;;;6281133;22;20054;-73
2020/12/07 15:52:49;;;;;;;80.18;28.63;;;;;;;;;;6280751;22;20004;-72
2020/12/07 15:55:15;;;;;;;75.78;27.15;;;;;;;;;;6281032;22;20408;-75
2020/12/07 15:57:43;;;;;;;70.45;26.17;;;;;;;;;;6281815;22;20033;-74
2020/12/07 16:00:10;;;;;;;75.20;27.65;;;;;;;;;;6278233;22;20026;-76
2020/12/07 16:02:36;;;;;;;69.50;27.85;;;;;;;;;;6247892;22;20121;-73
2020/12/07 16:05:04;;;;;;;72.68;26.25;;;9.20;62.30;;;;;;6270291;22;20016;-73
2020/12/07 16:07:30;;;;;;;74.82;26.05;;;;;;;;;;6272303;22;20008;-73
2020/12/07 16:09:56;;;;;;;65.47;25.17;;;;;;;;;;6269656;22;20023;-72
2020/12/07 16:12:23;;;;;;;68.03;27.00;;;;;;;;;;6265642;22;20014;-73
2020/12/07 16:14:49;;;;;;;67.05;26.08;;;;;;;;;;6271391;22;20037;-71
2020/12/07 16:17:15;;;;;;;68.57;26.30;;;;;;;;;;6243757;22;20011;-70
2020/12/07 16:19:41;;;;;;;68.10;25.95;;;;;;;;;;6271467;22;20289;-74
2020/12/07 16:22:08;;;;;;;77.00;28.35;;;;;;;;;;6245019;22;20427;-72
2020/12/07 16:24:34;;;;;;;63.92;23.92;;;;;;;;;;6271057;22;20022;-72
2020/12/07 16:27:01;;;;;;;70.38;26.05;;;;;;;;;;6271835;22;20012;-72
2020/12/07 16:29:27;;;;;;;61.78;23.25;;;;;;;;;;6271803;22;20007;-71
2020/12/07 16:31:53;;;;;;;66.72;25.50;;;;;;;;;;6272058;22;20042;-70
2020/12/07 16:34:19;;;;;;;63.75;24.50;;;;;;;;;;6271282;22;20620;-71
2020/12/07 16:36:50;;;;;;;60.35;21.63;;;9.20;62.10;;;;;;6245143;22;20098;-70
2020/12/07 16:39:16;;;;;;;63.88;24.23;;;9.30;61.80;;;;;;6271291;22;20004;-72
2020/12/07 16:41:43;;;;;;;59.92;22.83;;;;;;;;;;6270147;22;20073;-72
2020/12/07 16:44:09;;;;;;;67.07;23.92;;;;;;;;;;6271705;22;20061;-70
2020/12/07 16:46:35;;;;;;;58.55;24.60;;;;;;;;;;6272292;22;20023;-72
2020/12/07 16:49:02;;;;;;;61.33;23.40;;;;;;;;;;6271232;22;20008;-73
2020/12/07 16:51:28;;;;;;;61.22;23.45;;;;;;;;;;6244101;22;20011;-71
2020/12/07 16:53:54;;;;;;;59.03;21.95;;;;;;;;;;6271397;22;20008;-72
2020/12/07 16:56:21;;;;;;;59.05;23.83;;;;;;;;;;6271075;22;20082;-71
2020/12/07 16:58:47;;;;;;;55.72;22.35;;;;;;;;;;6272051;22;20057;-71
2020/12/07 17:01:13;;;;;;;58.45;22.13;;;;;;;;;;6272049;22;20050;-71
2020/12/07 17:03:40;;;;;;;53.28;21.85;;;;;;;;;;6271219;22;20558;-71
2020/12/07 17:06:06;;;;;;;55.33;22.98;;;;;;;;;;6270944;22;20114;-71
2020/12/07 17:08:33;;;;;;;54.42;20.73;;;;;;;;;;6271940;22;20006;-70
2020/12/07 17:10:59;;;;;;;60.97;23.40;;;;;;;;;;6270698;22;20597;-71
2020/12/07 17:13:25;;;;;;;55.67;21.70;;;;;;;;;;6270706;22;20012;-71
2020/12/07 17:15:52;;;;;;;53.63;21.48;;;;;;;;;;6272243;22;20011;-72
2020/12/07 17:18:18;;;;;;;50.88;21.27;;;;;;;;;;6271413;22;20462;-75
2020/12/07 17:20:48;;;;;;;53.75;21.58;;;;;;;;;;6271901;22;20512;-76
2020/12/07 17:23:15;;;;;;;47.78;18.42;;;9.30;61.10;;;;;;6271175;22;20061;-74
2020/12/07 17:25:41;;;;;;;48.03;21.23;;;;;;;;;;6271563;22;20384;-72
2020/12/07 17:28:09;;;;;;;45.53;19.92;;;;;;;;;;6271556;22;20007;-71
2020/12/07 17:30:36;;;;;;;43.67;19.40;;;;;;;;;;6244374;22;20019;-73
2020/12/07 17:33:03;;;;;;;43.30;19.35;;;9.30;61.00;;;;;;6219175;22;20007;-73
2020/12/07 17:35:30;;;;;;;51.30;19.92;;;;;;;;;;6270603;22;20012;-73
2020/12/07 17:37:56;;;;;;;55.70;22.55;;;;;;;;;;6272803;22;20019;-76
2020/12/07 17:40:22;;;;;;;49.13;20.33;;;;;;;;;;6271783;22;20030;-73
2020/12/07 17:42:48;;;;;;;54.17;20.65;;;;;;;;;;6271415;22;20344;-74
2020/12/07 17:45:15;;;;;;;55.03;20.27;;;;;;;;;;6273586;22;20004;-76
2020/12/07 17:47:41;;;;;;;50.05;20.38;;;;;;;;;;6273430;22;20015;-75
2020/12/07 17:50:07;;;;;;;50.70;20.83;;;;;;;;;;6276551;22;20030;-74
2020/12/07 17:52:33;;;;;;;44.70;19.95;;;;;;;;;;6276323;22;20033;-75
2020/12/07 17:55:00;;;;;;;55.88;20.98;;;;;;;;;;6273951;22;20424;-73
2020/12/07 17:57:26;;;;;;;43.50;19.60;;;;;;;;;;6275446;22;20024;-75
2020/12/07 17:59:52;;;;;;;46.25;19.20;;;;;;;;;;6276826;22;20016;-75
2020/12/07 18:02:19;;;;;;;41.47;18.52;;;;;;;;;;6276117;22;20060;-78
2020/12/07 18:04:45;;;;;;;44.25;19.70;;;;;;;;;;6273976;22;20012;-74
2020/12/07 18:07:11;;;;;;;48.83;20.80;;;;;;;;;;6274796;22;20008;-77
2020/12/07 18:09:37;;;;;;;42.22;18.63;;;;;;;;;;6274798;22;20015;-77
2020/12/07 18:12:05;;;;;;;46.33;19.92;;;9.40;61.20;;;;;;6274004;22;20031;-75
2020/12/07 18:14:32;;;;;;;49.13;20.50;;;9.50;61.00;;;;;;6275972;22;20030;-76
2020/12/07 18:16:58;;;;;;;;;;;9.50;61.40;;;;;;6276646;22;20014;-76
2020/12/07 18:19:26;;;;;;;44.20;18.80;;;;;;;;;;6282812;22;20235;-76
2020/12/07 18:21:54;;;;;;;44.30;18.38;;;9.60;60.40;;;;;;6292131;22;20336;-76
2020/12/07 18:24:21;;;;;;;47.55;21.33;;;;;;;;;;6282732;22;19999;-78
2020/12/07 18:26:48;;;;;;;49.25;20.90;;;9.60;60.60;;;;;;6278483;22;20440;-78
2020/12/07 18:29:14;;;;;;;51.25;20.65;;;;;;;;;;6275221;22;20011;-72
2020/12/07 18:31:42;;;;;;;46.60;20.60;;;9.70;60.70;;;;;;6273829;22;20465;-73
2020/12/07 18:34:08;;;;;;;49.50;21.35;;;;;;;;;;6272401;22;20451;-71
2020/12/07 18:36:34;;;;;;;52.03;21.23;;;;;;;;;;6277849;22;20015;-77
2020/12/07 18:39:01;;;;;;;51.17;20.83;;;;;;;;;;6280824;22;20000;-75
2020/12/07 18:41:27;;;;;;;49.35;20.73;;;;;;;;;;6280796;22;20012;-76
2020/12/07 18:43:54;;;;;;;45.05;20.55;;;;;;;;;;6282348;22;20012;-77
2020/12/07 18:46:23;;;;;;;45.00;19.02;;;9.70;60.40;;;;;;6284663;22;20018;-78
2020/12/07 18:48:50;;;;;;;46.92;20.05;;;9.80;60.50;;;;;;6280230;22;20003;-76
2020/12/07 18:51:17;;;;;;;45.55;19.85;;;;;;;;;;6275564;22;20012;-74
2020/12/07 18:53:44;;;;;;;50.65;19.50;;;9.70;60.20;;;;;;6280164;22;20042;-75
2020/12/07 18:56:11;;;;;;;51.72;20.83;;;;;;;;;;6276365;22;20019;-78
2020/12/07 18:58:40;;;;;;;42.63;18.17;;;9.80;60.00;;;;;;6274259;22;20026;-75
2020/12/07 19:01:06;;;;;;;46.10;18.35;;;;;;;;;;6273325;22;20008;-76
2020/12/07 19:03:33;;;;;;;45.25;18.77;;;;;;;;;;6276815;22;20008;-77
2020/12/07 19:06:00;;;;;;;40.42;17.27;;;9.70;59.80;;;;;;6270555;22;20020;-76
2020/12/07 19:08:26;;;;;;;46.53;19.30;;;;;;;;;;6243974;22;20039;-75
2020/12/07 19:10:52;;;;;;;44.88;19.88;;;;;;;;;;6271310;22;20716;-76
2020/12/07 19:13:19;;;;;;;41.22;17.48;;;;;;;;;;6271474;22;20427;-75
2020/12/07 19:15:45;;;;;;;42.58;18.10;;;;;;;;;;6270950;22;20007;-77
2020/12/07 19:18:12;;;;;;;35.70;16.60;;;;;;;;;;6272062;22;20059;-77
2020/12/07 19:20:38;;;;;;;36.58;16.83;;;;;;;;;;6271934;22;20081;-74
2020/12/07 19:23:05;;;;;;;40.90;17.63;;;;;;;;;;6271417;22;20015;-75
2020/12/07 19:25:31;;;;;;;37.58;17.55;;;;;;;;;;6272267;22;20011;-76
2020/12/07 19:27:57;;;;;;;44.22;18.23;;;;;;;;;;6271836;22;20019;-76
2020/12/07 19:30:24;;;;;;;39.78;18.83;;;9.60;59.70;;;;;;6271394;22;20023;-74
2020/12/07 19:32:50;;;;;;;39.35;16.75;;;;;;;;;;6271581;22;20012;-75
2020/12/07 19:35:17;;;;;;;39.22;16.85;;;9.50;59.70;;;;;;6243922;22;20008;-77
2020/12/07 19:37:44;;;;;;;38.17;17.40;;;9.50;59.60;;;;;;6275107;22;20004;-74
2020/12/07 19:40:10;;;;;;;36.80;16.55;;;;;;;;;;6275791;22;20038;-75
2020/12/07 19:42:37;;;;;;;37.60;17.17;;;9.40;59.70;;;;;;6246569;22;20332;-75
2020/12/07 19:45:07;;;;;;;39.15;18.60;;;9.40;59.80;;;;;;6273819;22;20034;-77
2020/12/07 19:47:34;;;;;;;40.90;16.67;;;;;;;;;;6274423;22;20042;-76
2020/12/07 19:50:00;;;;;;;38.33;17.92;;;;;;;;;;6275217;22;20025;-77
2020/12/07 19:52:27;;;;;;;43.67;17.23;;;;;;;;;;6250055;22;20023;-76
2020/12/07 19:54:53;;;;;;;42.63;18.35;;;;;;;;;;6274502;22;20059;-76
2020/12/07 19:57:19;;;;;;;39.50;17.55;;;;;;;;;;6280440;22;20015;-77
2020/12/07 19:59:46;;;;;;;38.80;17.30;;;;;;;;;;6279981;22;20023;-76
2020/12/07 20:02:12;;;;;;;35.50;16.90;;;;;;;;;;6278886;22;20057;-74
2020/12/07 20:04:38;;;;;;;43.15;17.27;;;;;;;;;;6278506;22;20055;-75
2020/12/07 20:07:05;;;;;;;43.72;17.45;;;;;;;;;;6280588;22;20038;-75
2020/12/07 20:09:31;;;;;;;40.25;18.05;;;;;;;;;;6282574;22;20039;-77
2020/12/07 20:11:57;;;;;;;41.83;18.30;;;;;;;;;;6280317;22;20046;-76
2020/12/07 20:14:23;;;;;;;46.45;19.30;;;;;;;;;;6251632;22;20043;-78
2020/12/07 20:16:53;;;;;;;47.88;18.77;;;9.20;59.00;;;;;;6280267;22;20111;-77
2020/12/07 20:19:21;;;;;;;39.47;18.95;;;;;;;;;;6284288;22;20060;-75
2020/12/07 20:21:47;;;;;;;48.10;20.08;;;;;;;;;;6284179;22;20459;-76
2020/12/07 20:24:14;;;;;;;45.25;18.30;;;;;;;;;;6284849;22;20329;-74
2020/12/07 20:26:40;;;;;;;52.13;19.75;;;;;;;;;;6257724;22;20011;-77
2020/12/07 20:29:07;;;;;;;45.92;17.95;;;;;;;;;;6280334;22;20036;-75
2020/12/07 20:31:33;;;;;;;45.67;17.73;;;;;;;;;;6278743;22;20015;-76
2020/12/07 20:33:59;;;;;;;38.10;17.83;;;;;;;;;;6279816;22;20079;-76
2020/12/07 20:36:26;;;;;;;35.58;17.83;;;;;;;;;;6253681;22;20011;-76
2020/12/07 20:38:52;;;;;;;44.25;19.33;;;;;;;;;;6250030;22;20046;-75
2020/12/07 20:41:21;;;;;;;45.00;17.65;;;8.70;60.60;;;;;;6222616;22;20018;-76
2020/12/07 20:43:47;;;;;;;39.15;18.08;;;;;;;;;;6248947;22;20373;-76
2020/12/07 20:46:13;;;;;;;35.92;16.75;;;;;;;;;;6278545;22;20061;-78
2020/12/07 20:48:40;;;;;;;36.72;16.25;;;;;;;;;;6280222;22;20011;-75
2020/12/07 20:51:06;;;;;;;41.72;16.85;;;;;;;;;;6274905;22;20033;-75
2020/12/07 20:53:32;;;;;;;40.72;17.15;;;;;;;;;;6289249;22;19996;-76
2020/12/07 20:55:58;;;;;;;42.65;17.95;;;;;;;;;;6285922;22;20416;-77
2020/12/07 20:58:25;;;;;;;42.60;16.67;;;;;;;;;;6274501;22;20018;-76
2020/12/07 21:00:51;;;;;;;40.85;16.58;;;;;;;;;;6274186;22;20376;-76
2020/12/07 21:03:23;;;;;;;40.35;16.23;;;;;;;;;;6275413;22;20012;-77
2020/12/07 21:05:50;;;;;;;41.03;16.80;;;;;;;;;;6277145;22;20041;-76
2020/12/07 21:08:16;;;;;;;35.00;16.58;;;;;;;;;;6280340;22;20008;-77
2020/12/07 21:10:42;;;;;;;33.72;15.68;;;;;;;;;;6282840;22;20180;-76
2020/12/07 21:13:08;;;;;;;35.65;16.15;;;;;;;;;;6280881;22;20003;-76
2020/12/07 21:15:35;;;;;;;38.80;16.17;;;;;;;;;;6283948;22;20011;-76
2020/12/07 21:18:01;;;;;;;;;;;8.40;60.40;;;;;;6282160;22;20030;-77
2020/12/07 21:20:27;;;;;;;32.65;15.68;;;;;;;;;;6276507;22;19907;-76
2020/12/07 21:22:54;;;;;;;34.25;16.38;;;;;;;;;;6252123;22;20003;-78
2020/12/07 21:25:20;;;;;;;33.40;15.43;;;;;;;;;;6277221;22;20007;-76
2020/12/07 21:27:46;;;;;;;35.17;15.63;;;;;;;;;;6282713;22;20051;-77
2020/12/07 21:30:12;;;;;;;34.30;14.95;;;;;;;;;;6280074;22;20015;-75
2020/12/07 21:32:43;;;;;;;37.33;14.77;;;;;;;;;;6279525;22;20008;-75
2020/12/07 21:35:10;;;;;;;30.92;14.55;;;;;;;;;;6274408;22;20015;-75
2020/12/07 21:37:36;;;;;;;38.50;15.73;;;;;;;;;;6274928;22;20023;-75
2020/12/07 21:40:04;;;;;;;36.63;16.25;;;8.40;60.30;;;;;;6272933;22;20454;-76
2020/12/07 21:42:31;;;;;;;35.28;15.93;;;;;;;;;;6273345;22;20290;-75
2020/12/07 21:44:57;;;;;;;30.65;14.73;;;;;;;;;;6247453;22;20022;-75
2020/12/07 21:47:23;;;;;;;33.08;14.98;;;;;;;;;;6273760;22;20082;-74
2020/12/07 21:49:49;;;;;;;28.92;14.13;;;;;;;;;;6275636;22;20365;-74
2020/12/07 21:52:16;;;;;;;31.75;13.77;;;;;;;;;;6274799;22;20088;-76
2020/12/07 21:54:46;;;;;;;32.85;14.23;;;;;;;;;;6273470;22;20018;-75
2020/12/07 21:57:13;;;;;;;31.38;15.23;;;;;;;;;;6248736;22;20019;-76
2020/12/07 21:59:41;;;;;;;32.17;15.00;;;;;;;;;;6274768;22;20011;-77
2020/12/07 22:02:12;;;;;;;34.30;14.23;;;8.50;59.90;;;;;;6278925;22;20428;-76
2020/12/07 22:04:38;;;;;;;32.22;13.70;;;;;;;;;;6282327;22;19988;-77
2020/12/07 22:07:05;;;;;;;28.50;13.98;;;;;;;;;;6283005;22;20026;-75
2020/12/07 22:09:31;;;;;;;34.35;14.75;;;;;;;;;;6280031;22;20015;-76
2020/12/07 22:12:04;;;;;;;25.95;13.65;;;8.50;59.50;;;;;;6280368;22;20022;-75
2020/12/07 22:14:31;;;;;;;30.77;14.85;;;;;;;;;;6281526;22;20011;-76
2020/12/07 22:16:57;;;;;;;29.15;13.05;;;;;;;;;;6279967;22;20011;-77
2020/12/07 22:19:24;;;;;;;29.90;13.95;;;;;;;;;;6277632;22;20035;-75
2020/12/07 22:21:50;;;;;;;30.80;13.40;;;;;;;;;;6274762;22;20008;-76
2020/12/07 22:24:17;;;;;;;32.88;14.82;;;;;;;;;;6278048;22;20019;-76
2020/12/07 22:26:43;;;;;;;31.58;14.68;;;;;;;;;;6288377;22;20022;-75
2020/12/07 22:29:09;;;;;;;39.20;14.88;;;;;;;;;;6286253;22;20022;-76
2020/12/07 22:31:35;;;;;;;31.00;14.82;;;;;;;;;;6284738;22;20126;-76
2020/12/07 22:34:02;;;;;;;26.63;13.73;;;;;;;;;;6280525;22;20061;-75
2020/12/07 22:36:29;;;;;;;30.30;13.43;;;;;;;;;;6283042;22;20027;-77
2020/12/07 22:38:56;;;;;;;31.48;14.85;;;;;;;;;;6284533;22;20167;-77
2020/12/07 22:41:22;;;;;;;27.40;14.52;;;;;;;;;;6281093;22;20011;-76
2020/12/07 22:43:49;;;;;;;41.35;15.43;;;;;;;;;;6277782;22;20004;-76
2020/12/07 22:46:16;;;;;;;31.73;14.02;;;8.30;58.90;;;;;;6281511;22;20344;-77
2020/12/07 22:48:43;;;;;;;32.83;14.70;;;;;;;;;;6282388;22;20014;-74
2020/12/07 22:51:10;;;;;;;36.72;15.85;;;8.30;59.00;;;;;;6283884;22;20023;-77
2020/12/07 22:53:36;;;;;;;38.50;17.13;;;;;;;;;;6281268;22;20000;-75
2020/12/07 22:56:03;;;;;;;31.45;14.75;;;;;;;;;;6283229;22;20061;-76
2020/12/07 22:58:29;;;;;;;30.98;15.18;;;;;;;;;;6285715;22;20012;-75
2020/12/07 23:00:55;;;;;;;39.80;16.88;;;;;;;;;;6281394;22;20019;-74
2020/12/07 23:03:22;;;;;;;34.90;16.23;;;;;;;;;;6268828;22;20062;-72
2020/12/07 23:05:48;;;;;;;37.20;16.02;;;;;;;;;;6273487;22;20444;-73
2020/12/07 23:08:14;;;;;;;40.88;16.63;;;;;;;;;;6220745;22;20012;-71
2020/12/07 23:10:40;;;;;;;34.70;15.32;;;;;;;;;;6274008;22;20507;-72
2020/12/07 23:13:06;;;;;;;42.13;16.80;;;;;;;;;;6224142;22;20008;-71
2020/12/07 23:15:33;;;;;;;36.25;15.02;;;;;;;;;;6277192;22;20606;-73
2020/12/07 23:17:59;;;;;;;38.08;16.65;;;;;;;;;;6278005;22;20003;-73
2020/12/07 23:20:25;;;;;;;36.63;14.95;;;;;;;;;;6276684;22;20422;-73
2020/12/07 23:22:51;;;;;;;29.60;14.25;;;;;;;;;;6281843;22;20038;-72
2020/12/07 23:25:18;;;;;;;33.92;15.30;;;;;;;;;;6286474;22;20012;-72
2020/12/07 23:27:44;;;;;;;33.67;15.00;;;;;;;;;;6278718;22;20015;-74
2020/12/07 23:30:11;;;;;;;37.83;15.10;;;8.10;59.50;;;;;;6278559;22;20018;-72
2020/12/07 23:32:41;;;;;;;32.88;15.55;;;8.10;59.90;;;;;;6276759;22;20355;-74
2020/12/07 23:35:07;;;;;;;32.65;15.75;;;;;;;;;;6276727;22;20018;-73
2020/12/07 23:37:33;;;;;;;36.88;14.95;;;;;;;;;;6249479;22;20007;-73
2020/12/07 23:39:59;;;;;;;34.10;14.77;;;;;;;;;;6276897;22;20015;-73
2020/12/07 23:42:26;;;;;;;36.97;15.68;;;;;;;;;;6276177;22;20400;-71
2020/12/07 23:44:52;;;;;;;33.42;14.27;;;;;;;;;;6249048;22;20018;-72
2020/12/07 23:47:18;;;;;;;32.47;14.73;;;;;;;;;;6276355;22;20008;-73
2020/12/07 23:49:44;;;;;;;40.47;16.00;;;;;;;;;;6276163;22;20012;-73
2020/12/07 23:52:11;;;;;;;35.65;16.67;;;;;;;;;;6276290;22;20011;-74
2020/12/07 23:54:37;;;;;;;31.02;14.95;;;;;;;;;;6276422;22;20012;-73
2020/12/07 23:57:03;;;;;;;32.22;14.27;;;;;;;;;;6276216;22;20440;-73
2020/12/07 23:59:29;;;;;;;36.33;15.98;;;;;;;;;;6276292;22;20014;-73
